Time;durP1;ratioP1;P1;durP2;ratioP2;P2;SDS_P1;SDS_P2;PMS_P1;PMS_P2;Temp;Humidity;BMP_temperature;BMP_pressure;BME280_temperature;BME280_humidity;BME280_pressure;Samples;Min_cycle;Max_cycle;Signal;HPM_P1;HPM_P2
2023/06/17 00:00:54;;;;;;;;;13.00;12.25;;;;;28.77;35.72;101354.63;5075499;28;45300;-71
2023/06/17 00:03:20;;;;;;;;;15.00;14.75;;;;;28.81;35.69;101358.53;5076005;28;45379;-71
2023/06/17 00:05:45;;;;;;;;;15.25;14.00;;;;;28.85;35.39;101353.56;5075786;28;45395;-71
2023/06/17 00:08:10;;;;;;;;;14.75;14.75;;;;;28.89;35.75;101353.94;5075649;27;45343;-71
2023/06/17 00:10:36;;;;;;;;;15.00;15.00;;;;;28.90;36.00;101345.72;5075484;28;48191;-71
2023/06/17 00:13:02;;;;;;;;;14.00;14.00;;;;;28.93;35.62;101356.00;5075583;28;45401;-71
2023/06/17 00:15:32;;;;;;;;;11.00;11.00;;;;;28.97;35.40;101353.69;5075165;28;45471;-71
2023/06/17 00:18:00;;;;;;;;;14.25;14.00;;;;;28.98;35.72;101350.00;5075450;27;47254;-71
2023/06/17 00:20:25;;;;;;;;;12.00;12.00;;;;;29.00;35.95;101339.88;5075459;28;45358;-72
2023/06/17 00:22:52;;;;;;;;;13.75;12.75;;;;;29.02;35.53;101345.00;5075608;28;45326;-71
2023/06/17 00:25:18;;;;;;;;;13.50;13.50;;;;;29.05;35.42;101337.38;5075649;28;45379;-71
2023/06/17 00:27:43;;;;;;;;;16.75;15.75;;;;;29.07;35.66;101346.00;5075309;28;47038;-71
2023/06/17 00:30:09;;;;;;;;;14.00;13.25;;;;;29.09;35.33;101345.84;5074995;28;45399;-71
2023/06/17 00:32:36;;;;;;;;;13.75;13.75;;;;;29.11;35.68;101341.06;5078998;27;45417;-71
2023/06/17 00:35:03;;;;;;;;;12.75;12.75;;;;;29.11;35.77;101337.56;5078980;28;45323;-71
2023/06/17 00:37:28;;;;;;;;;15.50;15.00;;;;;29.13;35.46;101324.78;5078781;28;45525;-71
2023/06/17 00:39:54;;;;;;;;;13.00;12.00;;;;;29.17;35.35;101334.03;5078465;27;45536;-71
2023/06/17 00:42:19;;;;;;;;;13.75;12.50;;;;;29.15;35.10;101325.38;5078739;28;45317;-71
2023/06/17 00:44:45;;;;;;;;;13.75;13.50;;;;;29.20;35.06;101335.47;5078402;27;45414;-70
2023/06/17 00:47:13;;;;;;;;;14.33;14.00;;;;;29.20;34.97;101319.38;5078675;27;46124;-71
2023/06/17 00:49:41;;;;;;;;;13.75;13.75;;;;;29.21;35.16;101323.69;5078690;27;45428;-71
2023/06/17 00:52:08;;;;;;;;;15.00;13.50;;;;;29.21;35.48;101319.16;5078732;28;45408;-71
2023/06/17 00:54:37;;;;;;;;;14.25;11.75;;;;;29.23;35.82;101319.75;5078622;28;45415;-71
2023/06/17 00:57:02;;;;;;;;;13.00;13.00;;;;;29.26;35.79;101310.44;5078447;28;45358;-71
2023/06/17 00:59:32;;;;;;;;;12.75;12.00;;;;;29.25;35.72;101320.34;5078237;28;45408;-71
2023/06/17 01:01:57;;;;;;;;;15.00;14.00;;;;;29.27;35.61;101317.47;5077294;28;45328;-71
2023/06/17 01:04:23;;;;;;;;;13.00;12.50;;;;;29.26;35.46;101311.28;5078522;28;45233;-71
2023/06/17 01:07:03;;;;;;;;;14.00;13.50;;;;;29.27;35.62;101315.63;5078328;28;46981;-71
2023/06/17 01:09:32;;;;;;;;;16.00;13.00;;;;;29.28;35.60;101309.19;5078403;28;45281;-71
2023/06/17 01:11:59;;;;;;;;;17.00;15.50;;;;;29.28;35.53;101303.84;5078464;27;45343;-71
2023/06/17 01:14:26;;;;;;;;;12.75;12.00;;;;;29.28;35.33;101306.53;5077905;28;45393;-72
2023/06/17 01:16:54;;;;;;;;;9.75;9.75;;;;;29.30;35.94;101303.63;5077880;28;46123;-71
2023/06/17 01:19:23;;;;;;;;;15.50;13.75;;;;;29.30;35.54;101303.63;5078179;27;45442;-71
2023/06/17 01:21:51;;;;;;;;;15.25;14.00;;;;;29.30;35.62;101303.63;5078356;28;45405;-71
2023/06/17 01:24:28;;;;;;;;;13.75;12.75;;;;;29.32;35.58;101300.72;5078324;27;45485;-71
2023/06/17 01:26:59;;;;;;;;;13.75;13.75;;;;;29.32;35.97;101298.88;5077600;28;46210;-71
2023/06/17 01:29:29;;;;;;;;;11.50;11.50;;;;;29.30;35.40;101290.25;5077931;28;45413;-71
2023/06/17 01:31:58;;;;;;;;;13.25;13.25;;;;;29.32;35.25;101293.50;5078048;27;45282;-71
2023/06/17 01:34:42;;;;;;;;;12.00;11.75;;;;;29.34;35.27;101290.59;5078097;28;45379;-71
2023/06/17 01:37:12;;;;;;;;;15.25;14.00;;;;;29.31;35.53;101283.81;5077927;28;45376;-72
2023/06/17 01:39:42;;;;;;;;;13.00;13.00;;;;;29.34;35.44;101295.97;5077800;27;45337;-72
2023/06/17 01:42:20;;;;;;;;;13.25;13.25;;;;;29.34;35.48;101282.56;5076560;27;45331;-72
2023/06/17 01:44:47;;;;;;;;;11.25;11.25;;;;;29.34;35.41;101283.38;5078084;28;45449;-71
2023/06/17 01:47:12;;;;;;;;;11.25;10.25;;;;;29.35;35.48;101290.41;5077649;28;45372;-71
2023/06/17 01:49:37;;;;;;;;;14.75;12.75;;;;;29.34;35.47;101272.66;5077892;28;45366;-71
2023/06/17 01:52:04;;;;;;;;;12.00;12.00;;;;;29.36;35.60;101275.94;5077714;28;45769;-71
2023/06/17 01:54:30;;;;;;;;;12.67;12.67;;;;;29.36;35.03;101272.44;5078023;28;45301;-71
2023/06/17 01:56:55;;;;;;;;;10.50;10.50;;;;;29.35;35.47;101268.97;5077173;28;45976;-72
2023/06/17 01:59:20;;;;;;;;;14.25;13.75;;;;;29.37;35.16;101269.56;5077664;28;45409;-71
2023/06/17 02:01:46;;;;;;;;;12.00;12.00;;;;;29.37;35.68;101266.88;5077808;28;45347;-71
2023/06/17 02:04:11;;;;;;;;;11.50;11.50;;;;;29.36;35.71;101267.06;5077368;27;48804;-72
2023/06/17 02:06:37;;;;;;;;;10.67;10.00;;;;;29.37;35.40;101268.72;5077746;27;45267;-71
2023/06/17 02:09:03;;;;;;;;;12.33;12.33;;;;;29.37;35.41;101260.69;5077666;27;45344;-71
2023/06/17 02:11:28;;;;;;;;;12.67;11.33;;;;;29.39;35.41;101270.16;5077289;28;45451;-71
2023/06/17 02:13:53;;;;;;;;;14.00;12.00;;;;;29.39;35.43;101270.16;5077656;28;45358;-71
2023/06/17 02:16:19;;;;;;;;;13.25;12.25;;;;;29.39;35.10;101264.78;5077196;28;46101;-71
2023/06/17 02:18:45;;;;;;;;;13.50;12.75;;;;;29.39;35.47;101262.09;5077429;28;45466;-71
2023/06/17 02:21:10;;;;;;;;;12.00;12.00;;;;;29.40;35.48;101270.97;5077596;27;45340;-71
2023/06/17 02:23:35;;;;;;;;;13.00;11.00;;;;;29.40;35.62;101269.13;5077545;28;45524;-71
2023/06/17 02:26:01;;;;;;;;;14.00;13.00;;;;;29.39;35.56;101261.28;5076874;28;46280;-71
2023/06/17 02:28:26;;;;;;;;;10.75;10.75;;;;;29.38;36.15;101263.13;5077240;28;45347;-71
2023/06/17 02:30:52;;;;;;;;;12.67;12.33;;;;;29.40;35.61;101261.06;5077343;28;45329;-71
2023/06/17 02:33:18;;;;;;;;;10.50;10.50;;;;;29.40;35.66;101261.06;5077328;28;45385;-71
2023/06/17 02:35:44;;;;;;;;;14.00;12.50;;;;;29.39;35.87;101261.28;5077035;28;46882;-71
2023/06/17 02:38:10;;;;;;;;;12.67;11.67;;;;;29.39;35.77;101261.28;5076977;28;45238;-71
2023/06/17 02:40:36;;;;;;;;;12.67;12.67;;;;;29.38;35.69;101248.94;5076689;27;45519;-71
2023/06/17 02:43:01;;;;;;;;;11.75;11.75;;;;;29.39;35.61;101253.25;5077167;28;45353;-71
2023/06/17 02:45:26;;;;;;;;;13.67;13.67;;;;;29.38;35.63;101248.94;5075672;28;46287;-71
2023/06/17 02:47:52;;;;;;;;;13.50;13.00;;;;;29.40;35.70;101246.84;5076924;28;45266;-71
2023/06/17 02:50:23;;;;;;;;;12.33;11.00;;;;;29.39;35.80;101250.56;5076812;27;45438;-71
2023/06/17 02:52:55;;;;;;;;;13.25;13.25;;;;;29.39;35.69;101246.03;5077004;28;45541;-71
2023/06/17 02:55:22;;;;;;;;;11.00;11.00;;;;;29.39;35.97;101247.88;5076478;27;45434;-71
2023/06/17 02:57:47;;;;;;;;;12.00;11.50;;;;;29.38;35.67;101239.00;5076789;28;45359;-71
2023/06/17 03:00:13;;;;;;;;;13.75;13.25;;;;;29.39;35.86;101231.81;5092530;27;45378;-71
2023/06/17 03:02:38;;;;;;;;;13.50;13.25;;;;;29.39;35.97;101239.84;5076836;27;45298;-72
2023/06/17 03:05:06;;;;;;;;;11.75;11.00;;;;;29.38;35.70;101239.00;5076378;28;55769;-71
2023/06/17 03:07:36;;;;;;;;;14.50;13.50;;;;;29.35;35.71;101231.44;5076762;27;45380;-71
2023/06/17 03:10:04;;;;;;;;;12.00;12.00;;;;;29.38;35.24;101230.97;5076276;28;45370;-71
2023/06/17 03:12:30;;;;;;;;;13.25;13.25;;;;;29.39;35.47;101234.47;5076685;27;45285;-71
2023/06/17 03:14:57;;;;;;;;;13.00;12.25;;;;;29.39;35.50;101224.59;5076003;28;46334;-71
2023/06/17 03:17:24;;;;;;;;;12.00;12.00;;;;;29.39;35.41;101229.94;5076497;28;45410;-71
2023/06/17 03:19:50;;;;;;;;;14.50;14.25;;;;;29.40;35.60;101230.78;5076469;28;45560;-71
2023/06/17 03:22:15;;;;;;;;;15.00;13.67;;;;;29.40;35.34;101231.59;5075967;27;45544;-71
2023/06/17 03:24:41;;;;;;;;;14.25;11.25;;;;;29.40;35.42;101230.78;5075745;28;45980;-71
2023/06/17 03:27:06;;;;;;;;;12.00;12.00;;;;;29.39;35.56;101229.13;5091967;27;45521;-71
2023/06/17 03:29:34;;;;;;;;;14.67;12.67;;;;;29.40;35.34;101236.97;5076471;28;45306;-71
2023/06/17 03:31:59;;;;;;;;;11.25;11.25;;;;;29.40;35.63;101234.28;5076385;27;45454;-71
2023/06/17 03:34:25;;;;;;;;;13.00;12.33;;;;;29.40;35.44;101231.59;5076134;27;46209;-71
2023/06/17 03:36:50;;;;;;;;;12.25;11.25;;;;;29.40;35.28;101230.78;5076175;28;45378;-71
2023/06/17 03:39:16;;;;;;;;;14.00;13.75;;;;;29.42;35.38;101230.53;5075722;27;45521;-71
2023/06/17 03:41:41;;;;;;;;;15.25;14.75;;;;;29.42;35.80;101234.03;5076172;28;48321;-71
2023/06/17 03:44:07;;;;;;;;;12.25;11.25;;;;;29.40;35.48;101236.97;5076105;28;46288;-71
2023/06/17 03:46:32;;;;;;;;;12.50;12.00;;;;;29.42;35.55;101230.53;5075990;27;46201;-71
2023/06/17 03:48:57;;;;;;;;;12.50;12.50;;;;;29.41;35.61;101229.72;5076211;27;45359;-71
2023/06/17 03:51:22;;;;;;;;;11.00;11.00;;;;;29.39;35.56;101227.25;5075827;28;45393;-71
2023/06/17 03:53:48;;;;;;;;;11.75;11.75;;;;;29.39;35.27;101229.94;5075610;28;46131;-71
2023/06/17 03:56:13;;;;;;;;;13.50;13.50;;;;;29.40;35.50;101233.47;5075942;28;45283;-71
2023/06/17 03:58:39;;;;;;;;;12.75;12.25;;;;;29.39;35.83;101229.13;5076032;28;45419;-71
2023/06/17 04:01:06;;;;;;;;;12.75;12.75;;;;;29.39;35.50;101229.94;5076046;28;45319;-71
2023/06/17 04:03:31;;;;;;;;;14.75;13.75;;;;;29.37;35.64;101218.63;5075819;28;46054;-71
2023/06/17 04:05:56;;;;;;;;;12.75;12.75;;;;;29.38;35.55;101230.19;5076671;28;45386;-71
2023/06/17 04:08:23;;;;;;;;;12.00;11.25;;;;;29.39;35.70;101232.63;5079352;28;45393;-71
2023/06/17 04:10:49;;;;;;;;;13.50;12.00;;;;;29.39;35.81;101231.81;5079430;28;45390;-71
2023/06/17 04:13:15;;;;;;;;;14.00;14.00;;;;;29.40;35.47;101230.78;5079207;28;46196;-72
2023/06/17 04:15:41;;;;;;;;;13.00;11.25;;;;;29.38;35.56;101227.50;5079079;27;45226;-71
2023/06/17 04:18:06;;;;;;;;;12.50;12.50;;;;;29.37;35.77;101221.31;5079544;27;45384;-71
2023/06/17 04:20:34;;;;;;;;;14.75;14.50;;;;;29.37;36.12;101221.31;5079166;28;45280;-71
2023/06/17 04:23:00;;;;;;;;;12.75;12.25;;;;;29.38;35.75;101222.94;5079038;27;45344;-71
2023/06/17 04:25:25;;;;;;;;;17.50;14.00;;;;;29.37;35.57;101224.00;5079032;28;45327;-71
2023/06/17 04:27:53;;;;;;;;;12.00;12.00;;;;;29.36;35.56;101221.53;5079303;27;45279;-71
2023/06/17 04:30:19;;;;;;;;;15.25;13.50;;;;;29.38;35.69;101219.47;5079020;28;45460;-71
2023/06/17 04:32:44;;;;;;;;;13.00;13.00;;;;;29.38;35.55;101211.41;5078915;28;46280;-71
2023/06/17 04:35:10;;;;;;;;;11.33;10.67;;;;;29.39;35.82;101218.41;5079054;28;45422;-71
2023/06/17 04:37:36;;;;;;;;;13.25;12.00;;;;;29.38;35.88;101212.22;5079038;28;45288;-71
2023/06/17 04:40:11;;;;;;;;;14.25;12.50;;;;;29.39;35.87;101219.22;5078783;27;45528;-71
2023/06/17 04:42:40;;;;;;;;;11.67;11.67;;;;;29.39;35.74;101219.22;5078847;27;46873;-71
2023/06/17 04:45:08;;;;;;;;;16.00;15.67;;;;;29.38;35.70;101220.25;5078805;27;45460;-71
2023/06/17 04:47:33;;;;;;;;;13.00;11.00;;;;;29.38;35.43;101216.78;5078930;27;45345;-71
2023/06/17 04:49:59;;;;;;;;;11.67;11.67;;;;;29.39;35.76;101213.88;5078262;27;45497;-71
2023/06/17 04:52:24;;;;;;;;;11.33;11.33;;;;;29.39;35.45;101221.91;5078588;28;46212;-71
2023/06/17 04:54:50;;;;;;;;;13.00;11.33;;;;;29.39;35.76;101218.41;5078621;28;45487;-71
2023/06/17 04:57:16;;;;;;;;;9.00;9.00;;;;;29.40;35.59;101214.69;5078876;28;45371;-71
2023/06/17 04:59:42;;;;;;;;;10.67;10.67;;;;;29.40;35.43;101214.69;5094473;27;45370;-71
2023/06/17 05:02:07;;;;;;;;;10.25;9.75;;;;;29.41;35.67;101224.34;5078610;28;46405;-71
2023/06/17 05:04:32;;;;;;;;;12.00;12.00;;;;;29.42;35.95;101222.50;5078273;28;45392;-71
2023/06/17 05:06:58;;;;;;;;;12.25;12.25;;;;;29.40;35.66;101218.19;5078577;28;45279;-71
2023/06/17 05:09:23;;;;;;;;;11.33;11.33;;;;;29.40;35.60;101217.38;5078531;28;45319;-72
2023/06/17 05:11:49;;;;;;;;;13.75;12.00;;;;;29.39;35.59;101216.53;5078468;27;45952;-71
2023/06/17 05:14:14;;;;;;;;;11.50;11.25;;;;;29.40;35.65;101212.84;5078477;28;45445;-71
2023/06/17 05:16:40;;;;;;;;;12.25;12.25;;;;;29.40;35.88;101217.38;5077844;28;45507;-71
2023/06/17 05:19:05;;;;;;;;;12.00;12.00;;;;;29.41;35.46;101221.69;5078214;28;45489;-71
2023/06/17 05:21:30;;;;;;;;;12.25;11.25;;;;;29.40;35.71;101220.88;5078222;28;46143;-72
2023/06/17 05:23:56;;;;;;;;;13.00;13.00;;;;;29.40;35.93;101214.69;5078317;27;45335;-71
2023/06/17 05:26:21;;;;;;;;;13.25;13.25;;;;;29.38;35.67;101211.41;5094018;27;45412;-71
2023/06/17 05:28:47;;;;;;;;;13.25;12.25;;;;;29.40;35.77;101220.06;5078225;27;45413;-71
2023/06/17 05:31:12;;;;;;;;;11.75;10.25;;;;;29.38;36.10;101216.78;5078064;28;46457;-71
2023/06/17 05:33:38;;;;;;;;;12.75;12.75;;;;;29.40;35.84;101220.06;5077850;28;45537;-71
2023/06/17 05:36:03;;;;;;;;;10.25;10.25;;;;;29.40;36.03;101231.59;5078254;28;45452;-71
2023/06/17 05:38:29;;;;;;;;;12.33;11.67;;;;;29.40;35.70;101220.06;5077946;27;45318;-71
2023/06/17 05:40:55;;;;;;;;;12.50;12.50;;;;;29.40;35.53;101228.91;5077860;27;47207;-71
2023/06/17 05:43:20;;;;;;;;;12.00;11.67;;;;;29.41;35.48;101227.03;5077928;27;45354;-71
2023/06/17 05:45:46;;;;;;;;;13.00;13.00;;;;;29.40;36.15;101220.88;5077983;28;45346;-71
2023/06/17 05:48:12;;;;;;;;;14.75;14.25;;;;;29.38;35.73;101219.47;5077861;28;45418;-71
2023/06/17 05:50:37;;;;;;;;;12.00;12.00;;;;;29.38;35.86;101225.63;5077698;27;45975;-71
2023/06/17 05:53:02;;;;;;;;;12.00;11.50;;;;;29.40;35.86;101225.41;5077563;28;45391;-71
2023/06/17 05:55:28;;;;;;;;;17.00;13.75;;;;;29.38;35.13;101217.56;5077943;28;45375;-71
2023/06/17 05:57:54;;;;;;;;;13.00;12.25;;;;;29.38;35.38;101220.25;5077776;28;45390;-71
2023/06/17 06:00:20;;;;;;;;;11.00;11.00;;;;;29.39;35.59;101224.59;5077498;27;46171;-71
2023/06/17 06:02:46;;;;;;;;;12.25;12.25;;;;;29.40;36.00;101222.72;5077370;27;45494;-72
2023/06/17 06:05:11;;;;;;;;;14.00;13.75;;;;;29.40;35.68;101222.72;5077554;28;45350;-71
2023/06/17 06:07:37;;;;;;;;;14.67;14.67;;;;;29.40;35.88;101222.72;5077635;28;45358;-71
2023/06/17 06:10:05;;;;;;;;;12.00;12.00;;;;;29.39;35.76;101227.25;5077432;28;45462;-71
2023/06/17 06:12:30;;;;;;;;;13.25;12.75;;;;;29.40;35.76;101228.91;5077444;27;45288;-71
2023/06/17 06:14:57;;;;;;;;;14.50;13.00;;;;;29.40;35.82;101225.41;5077367;28;45352;-71
2023/06/17 06:17:23;;;;;;;;;14.00;14.00;;;;;29.40;35.74;101231.59;5077122;28;45336;-71
2023/06/17 06:19:48;;;;;;;;;14.33;13.00;;;;;29.39;35.94;101223.75;5076868;27;45409;-71
2023/06/17 06:22:14;;;;;;;;;13.75;12.75;;;;;29.40;35.71;101223.56;5077356;28;45468;-71
2023/06/17 06:24:39;;;;;;;;;14.25;12.00;;;;;29.40;35.82;101226.25;5077326;28;45972;-71
2023/06/17 06:27:04;;;;;;;;;14.25;14.25;;;;;29.40;36.09;101222.72;5077374;28;45395;-71
2023/06/17 06:29:30;;;;;;;;;13.25;13.25;;;;;29.41;35.74;101224.34;5076382;27;45362;-71
2023/06/17 06:31:55;;;;;;;;;12.00;12.00;;;;;29.40;35.71;101223.56;5076683;28;47161;-71
2023/06/17 06:34:21;;;;;;;;;12.00;12.00;;;;;29.40;35.98;101230.78;5077363;28;45409;-71
2023/06/17 06:36:46;;;;;;;;;15.50;14.25;;;;;29.41;35.74;101232.41;5077201;28;45466;-71
2023/06/17 06:39:11;;;;;;;;;13.75;13.75;;;;;29.40;35.76;101236.13;5076923;27;45986;-71
2023/06/17 06:41:37;;;;;;;;;12.00;11.00;;;;;29.40;35.47;101238.81;5075770;28;45375;-71
2023/06/17 06:44:02;;;;;;;;;11.50;11.00;;;;;29.42;35.46;101236.72;5075825;28;45523;-71
2023/06/17 06:46:27;;;;;;;;;12.00;11.50;;;;;29.40;36.05;101236.13;5076757;28;45472;-71
2023/06/17 06:48:53;;;;;;;;;11.50;9.75;;;;;29.41;35.92;101243.13;5076966;27;46606;-71
2023/06/17 06:51:18;;;;;;;;;11.00;11.00;;;;;29.42;35.82;101244.75;5076754;28;45388;-71
2023/06/17 06:53:43;;;;;;;;;14.00;13.00;;;;;29.42;35.90;101251.97;5077022;27;45403;-71
2023/06/17 06:56:09;;;;;;;;;11.75;11.00;;;;;29.42;36.06;101251.97;5076487;27;53214;-71
2023/06/17 06:58:34;;;;;;;;;13.25;13.00;;;;;29.43;35.88;101249.09;5076635;28;47337;-71
2023/06/17 07:00:59;;;;;;;;;10.50;10.50;;;;;29.42;35.59;101242.09;5076534;28;45316;-71
2023/06/17 07:03:26;;;;;;;;;13.25;13.25;;;;;29.41;35.81;101240.44;5076723;27;45411;-71
2023/06/17 07:05:51;;;;;;;;;15.50;12.75;;;;;29.42;35.48;101239.41;5076755;28;45229;-71
2023/06/17 07:08:16;;;;;;;;;11.67;11.67;;;;;29.43;35.37;101233.00;5076610;28;45969;-71
2023/06/17 07:10:41;;;;;;;;;12.00;12.00;;;;;29.43;35.68;101242.91;5076433;28;45426;-72
2023/06/17 07:13:07;;;;;;;;;13.00;12.75;;;;;29.41;35.75;101237.75;5076856;28;45220;-72
2023/06/17 07:15:32;;;;;;;;;10.00;9.33;;;;;29.42;35.65;101236.72;5091784;27;45247;-71
2023/06/17 07:17:58;;;;;;;;;10.00;10.00;;;;;29.44;35.68;101241.84;5076353;28;46419;-71
2023/06/17 07:20:23;;;;;;;;;13.00;12.50;;;;;29.44;35.38;101244.53;5076587;28;45358;-71
2023/06/17 07:22:48;;;;;;;;;11.00;11.00;;;;;29.43;35.41;101238.38;5076511;28;45422;-71
2023/06/17 07:25:14;;;;;;;;;12.00;11.67;;;;;29.44;35.54;101241.84;5076436;27;45433;-71
2023/06/17 07:27:39;;;;;;;;;10.00;8.67;;;;;29.44;35.37;101250.72;5092038;27;47266;-71
2023/06/17 07:30:05;;;;;;;;;12.75;12.75;;;;;29.43;35.67;101249.09;5075736;28;45437;-71
2023/06/17 07:32:30;;;;;;;;;12.25;12.25;;;;;29.43;35.78;101243.72;5076403;28;45406;-71
2023/06/17 07:34:56;;;;;;;;;10.50;10.50;;;;;29.45;35.40;101244.31;5076326;27;45385;-71
2023/06/17 07:37:21;;;;;;;;;13.50;13.00;;;;;29.45;35.30;101247.00;5091689;27;47760;-71
2023/06/17 07:39:47;;;;;;;;;11.00;11.00;;;;;29.46;35.51;101254.00;5075895;27;45362;-71
2023/06/17 07:42:15;;;;;;;;;13.75;13.75;;;;;29.46;35.69;101242.47;5076282;28;45359;-72
2023/06/17 07:44:41;;;;;;;;;13.00;11.00;;;;;29.45;35.91;101243.50;5075863;27;45248;-71
2023/06/17 07:47:06;;;;;;;;;12.75;11.50;;;;;29.45;35.78;101249.69;5075927;28;45266;-71
2023/06/17 07:49:33;;;;;;;;;13.00;12.00;;;;;29.45;35.77;101246.19;5075933;28;45303;-71
2023/06/17 07:51:58;;;;;;;;;12.00;12.00;;;;;29.44;35.79;101248.03;5076036;28;45292;-71
2023/06/17 07:54:24;;;;;;;;;15.25;12.75;;;;;29.45;36.07;101247.00;5075902;28;45537;-71
2023/06/17 07:56:50;;;;;;;;;13.00;12.00;;;;;29.44;35.78;101248.03;5075844;28;45390;-71
2023/06/17 07:59:15;;;;;;;;;11.00;11.00;;;;;29.45;35.81;101249.69;5075682;28;45393;-71
2023/06/17 08:01:41;;;;;;;;;12.50;11.25;;;;;29.46;35.83;101239.78;5075934;28;45400;-72
2023/06/17 08:04:06;;;;;;;;;12.00;11.67;;;;;29.46;35.93;101245.16;5075819;28;45481;-71
2023/06/17 08:06:31;;;;;;;;;13.67;13.67;;;;;29.46;35.76;101242.47;5091413;27;47046;-71
2023/06/17 08:08:57;;;;;;;;;14.50;13.00;;;;;29.46;35.84;101243.28;5075533;28;45393;-71
2023/06/17 08:11:22;;;;;;;;;12.75;12.00;;;;;29.46;35.79;101237.91;5075862;28;45416;-71
2023/06/17 08:13:47;;;;;;;;;11.00;11.00;;;;;29.46;35.71;101242.47;5075319;28;45375;-71
2023/06/17 08:16:13;;;;;;;;;12.00;11.00;;;;;29.44;35.87;101245.34;5075409;27;47065;-71
2023/06/17 08:18:38;;;;;;;;;16.25;13.25;;;;;29.48;35.92;101245.75;5075626;28;45408;-71
2023/06/17 08:21:03;;;;;;;;;12.00;12.00;;;;;29.47;35.84;101244.91;5075769;28;45370;-71
2023/06/17 08:23:29;;;;;;;;;12.25;12.25;;;;;29.48;35.51;101241.22;5075722;28;45379;-71
2023/06/17 08:25:54;;;;;;;;;10.67;10.67;;;;;29.48;35.73;101238.53;5075351;28;51825;-71
2023/06/17 08:28:21;;;;;;;;;12.50;12.50;;;;;29.48;35.93;101238.53;5075063;28;45244;-71
2023/06/17 08:30:47;;;;;;;;;13.00;13.00;;;;;29.50;35.93;101241.81;5075627;28;45347;-71
2023/06/17 08:33:13;;;;;;;;;11.33;11.33;;;;;29.49;35.72;101229.44;5075339;28;45367;-71
2023/06/17 08:35:38;;;;;;;;;14.25;14.25;;;;;29.50;34.95;101228.41;5075286;27;50794;-72
2023/06/17 08:38:03;;;;;;;;;17.00;14.00;;;;;29.49;34.56;101232.09;5075365;28;45299;-73
2023/06/17 08:40:29;;;;;;;;;17.00;16.00;;;;;29.46;34.23;101229.06;5075369;27;45307;-72
2023/06/17 08:43:01;;;;;;;;;17.25;15.25;;;;;29.45;33.81;101219.38;5075197;28;45354;-72
2023/06/17 08:45:26;;;;;;;;;18.00;16.00;;;;;29.37;33.90;101217.81;5075177;27;47115;-72
2023/06/17 08:47:51;;;;;;;;;18.00;16.50;;;;;29.35;33.82;101220.72;5075262;27;45271;-73
2023/06/17 08:50:18;;;;;;;;;16.25;16.25;;;;;29.33;34.13;101216.63;5075266;28;45637;-72
2023/06/17 08:52:45;;;;;;;;;16.50;15.75;;;;;29.24;34.24;101211.53;5077438;27;45480;-72
2023/06/17 08:55:10;;;;;;;;;19.00;16.25;;;;;29.20;34.37;101206.84;5078548;27;47421;-72
2023/06/17 08:57:36;;;;;;;;;16.50;16.25;;;;;29.17;34.58;101211.59;5078105;28;50635;-74
2023/06/17 09:00:01;;;;;;;;;16.50;16.50;;;;;29.16;34.17;101212.66;5078736;28;45580;-72
2023/06/17 09:02:28;;;;;;;;;20.00;18.25;;;;;29.15;34.34;101210.16;5077758;28;45422;-73
2023/06/17 09:04:54;;;;;;;;;22.25;16.25;;;;;29.13;34.09;101205.06;5078429;27;45537;-75
2023/06/17 09:07:20;;;;;;;;;22.25;20.25;;;;;29.14;34.83;101200.53;5078383;28;45423;-72
2023/06/17 09:09:50;;;;;;;;;19.25;19.25;;;;;29.15;35.03;101197.59;5078431;27;45323;-72
2023/06/17 09:12:15;;;;;;;;;20.75;19.00;;;;;29.16;34.19;101198.44;5077988;27;45447;-72
2023/06/17 09:14:44;;;;;;;;;20.75;18.75;;;;;29.20;34.65;101196.13;5077660;28;61636;-72
2023/06/17 09:17:10;;;;;;;;;19.75;17.50;;;;;29.24;34.66;101200.00;5078364;27;45360;-73
2023/06/17 09:19:40;;;;;;;;;17.50;15.50;;;;;29.29;34.26;101195.63;5078503;27;45370;-73
2023/06/17 09:22:06;;;;;;;;;18.00;17.25;;;;;29.35;35.08;101199.28;5078294;27;45466;-73
2023/06/17 09:24:31;;;;;;;;;15.75;15.25;;;;;29.38;34.77;101203.38;5077831;27;46149;-72
2023/06/17 09:26:57;;;;;;;;;18.00;17.00;;;;;29.44;34.77;101207.84;5077559;28;45445;-72
2023/06/17 09:29:22;;;;;;;;;19.50;18.25;;;;;29.47;34.90;101210.06;5078101;27;45380;-72
2023/06/17 09:31:48;;;;;;;;;20.50;18.50;;;;;29.46;34.52;101210.31;5078208;27;45402;-72
2023/06/17 09:34:14;;;;;;;;;19.75;18.50;;;;;29.46;33.91;101210.31;5077984;27;45453;-72
2023/06/17 09:36:40;;;;;;;;;19.00;17.00;;;;;29.39;34.70;101205.00;5077904;27;45350;-71
2023/06/17 09:39:08;;;;;;;;;17.25;15.75;;;;;29.47;34.71;101215.44;5073960;27;45445;-71
2023/06/17 09:41:40;;;;;;;;;20.50;20.50;;;;;29.54;34.86;101219.88;5073031;28;45398;-71
2023/06/17 09:44:06;;;;;;;;;15.75;15.75;;;;;29.55;34.74;101210.81;5077687;28;46693;-71
2023/06/17 09:46:38;;;;;;;;;17.75;17.75;;;;;29.50;34.61;101195.41;5076844;28;45878;-72
2023/06/17 09:49:09;;;;;;;;;21.50;20.00;;;;;29.58;34.61;101205.84;5077397;27;45499;-72
2023/06/17 09:51:40;;;;;;;;;22.00;20.25;;;;;29.63;35.11;101207.84;5077104;28;45467;-71
2023/06/17 09:54:06;;;;;;;;;18.50;17.00;;;;;29.70;34.78;101215.81;5076245;28;45928;-71
2023/06/17 09:56:33;;;;;;;;;20.50;19.25;;;;;29.73;34.90;101207.34;5075702;27;45297;-73
2023/06/17 09:58:59;;;;;;;;;20.75;19.25;;;;;29.75;34.92;101207.94;5076204;27;45267;-73
2023/06/17 10:01:30;;;;;;;;;19.75;19.75;;;;;29.80;34.88;101207.25;5076628;27;45271;-73
2023/06/17 10:04:02;;;;;;;;;18.50;17.25;;;;;29.83;34.99;101207.63;5075176;27;46452;-72
2023/06/17 10:06:34;;;;;;;;;18.50;17.50;;;;;29.89;35.13;101207.78;5075943;27;45454;-72
2023/06/17 10:09:06;;;;;;;;;22.00;18.75;;;;;29.96;35.42;101203.13;5076261;27;45426;-72
2023/06/17 10:11:34;;;;;;;;;18.25;18.25;;;;;30.00;35.44;101204.34;5074030;28;45582;-71
2023/06/17 10:14:03;;;;;;;;;21.75;19.50;;;;;30.07;35.05;101198.88;5075881;27;46405;-72
2023/06/17 10:16:33;;;;;;;;;16.75;16.75;;;;;30.09;35.17;101196.78;5072806;27;45436;-73
2023/06/17 10:19:03;;;;;;;;;16.00;15.50;;;;;30.15;35.42;101195.06;5067506;28;45293;-72
2023/06/17 10:21:30;;;;;;;;;19.25;18.25;;;;;30.18;35.57;101191.94;5070502;28;45475;-73
2023/06/17 10:23:57;;;;;;;;;20.00;20.00;;;;;30.22;35.29;101181.53;5070338;28;45820;-73
2023/06/17 10:26:23;;;;;;;;;22.50;21.00;;;;;30.24;35.62;101179.47;5067067;28;45373;-73
2023/06/17 10:28:53;;;;;;;;;19.25;17.25;;;;;30.29;35.49;101179.59;5047066;28;45319;-73
2023/06/17 10:31:26;;;;;;;;;17.50;17.25;;;;;30.29;35.33;101171.56;5046253;28;45518;-73
2023/06/17 10:33:53;;;;;;;;;17.75;16.75;;;;;30.30;34.67;101165.13;5059640;28;47496;-74
2023/06/17 10:36:22;;;;;;;;;23.50;22.50;;;;;30.34;34.28;101166.34;5056045;28;45440;-71
2023/06/17 10:39:03;;;;;;;;;20.25;17.50;;;;;30.34;34.46;101160.97;5055691;28;45327;-72
2023/06/17 10:41:52;;;;;;;;;20.25;19.00;;;;;30.35;34.64;101162.59;5055144;28;45399;-72
2023/06/17 10:44:20;;;;;;;;;16.00;16.00;;;;;30.37;34.97;101162.38;5055891;28;45450;-70
2023/06/17 10:46:48;;;;;;;;;15.25;15.25;;;;;30.39;35.23;101158.38;5055474;28;45359;-67
2023/06/17 10:49:14;;;;;;;;;16.75;16.50;;;;;30.42;35.34;101156.31;5056159;28;45345;-72
2023/06/17 10:51:45;;;;;;;;;17.75;16.00;;;;;30.45;36.28;101150.47;5055908;28;45561;-70
2023/06/17 10:54:10;;;;;;;;;18.75;17.25;;;;;30.47;35.67;101145.72;5054348;28;46430;-69
2023/06/17 10:56:52;;;;;;;;;20.75;20.00;;;;;30.49;35.15;101152.47;5055116;28;45392;-71
2023/06/17 10:59:25;;;;;;;;;22.25;21.00;;;;;30.50;35.73;101140.69;5055813;28;45250;-70
2023/06/17 11:01:50;;;;;;;;;15.75;15.75;;;;;30.52;35.56;101137.78;5055764;28;45473;-72
2023/06/17 11:04:17;;;;;;;;;18.50;17.00;;;;;30.52;35.72;101127.03;5055480;28;46027;-73
2023/06/17 11:06:48;;;;;;;;;14.50;14.50;;;;;30.51;35.92;101128.06;5055300;28;45643;-69